sensor_id;sensor_type;location;lat;lon;timestamp;P1;durP1;ratioP1;P2;durP2;ratioP2
37677;SDS011;23517;50.390;8.616;2023-06-14T00:01:30;9.13;;;3.80;;
37677;SDS011;23517;50.390;8.616;2023-06-14T00:04:01;4.50;;;3.78;;
37677;SDS011;23517;50.390;8.616;2023-06-14T00:06:28;8.40;;;3.92;;
37677;SDS011;23517;50.390;8.616;2023-06-14T00:08:55;8.43;;;3.85;;
37677;SDS011;23517;50.390;8.616;2023-06-14T00:11:22;7.10;;;3.70;;
37677;SDS011;23517;50.390;8.616;2023-06-14T00:13:48;4.50;;;3.45;;
37677;SDS011;23517;50.390;8.616;2023-06-14T00:16:17;5.28;;;3.38;;
37677;SDS011;23517;50.390;8.616;2023-06-14T00:18:45;4.97;;;3.45;;
37677;SDS011;23517;50.390;8.616;2023-06-14T00:21:12;4.68;;;3.38;;
37677;SDS011;23517;50.390;8.616;2023-06-14T00:23:38;6.47;;;3.42;;
37677;SDS011;23517;50.390;8.616;2023-06-14T00:26:05;4.53;;;3.50;;
37677;SDS011;23517;50.390;8.616;2023-06-14T00:28:32;5.18;;;3.40;;
37677;SDS011;23517;50.390;8.616;2023-06-14T00:30:59;12.35;;;3.78;;
37677;SDS011;23517;50.390;8.616;2023-06-14T00:33:25;7.50;;;4.32;;
37677;SDS011;23517;50.390;8.616;2023-06-14T00:35:52;6.57;;;3.63;;
37677;SDS011;23517;50.390;8.616;2023-06-14T00:38:22;8.73;;;3.60;;
37677;SDS011;23517;50.390;8.616;2023-06-14T00:40:48;5.32;;;3.70;;
37677;SDS011;23517;50.390;8.616;2023-06-14T00:43:15;7.53;;;3.75;;
37677;SDS011;23517;50.390;8.616;2023-06-14T00:45:42;4.18;;;3.40;;
37677;SDS011;23517;50.390;8.616;2023-06-14T00:48:08;4.97;;;3.33;;
37677;SDS011;23517;50.390;8.616;2023-06-14T00:50:36;7.30;;;3.58;;
37677;SDS011;23517;50.390;8.616;2023-06-14T00:53:04;3.88;;;3.13;;
37677;SDS011;23517;50.390;8.616;2023-06-14T00:55:31;4.53;;;3.17;;
37677;SDS011;23517;50.390;8.616;2023-06-14T00:57:58;6.72;;;3.60;;
37677;SDS011;23517;50.390;8.616;2023-06-14T01:00:26;7.90;;;3.75;;
37677;SDS011;23517;50.390;8.616;2023-06-14T01:02:54;5.25;;;3.50;;
37677;SDS011;23517;50.390;8.616;2023-06-14T01:05:21;6.68;;;3.38;;
37677;SDS011;23517;50.390;8.616;2023-06-14T01:07:51;10.73;;;3.33;;
37677;SDS011;23517;50.390;8.616;2023-06-14T01:13:54;7.00;;;3.28;;
37677;SDS011;23517;50.390;8.616;2023-06-14T01:16:22;6.28;;;3.40;;
37677;SDS011;23517;50.390;8.616;2023-06-14T01:18:49;6.32;;;3.30;;
37677;SDS011;23517;50.390;8.616;2023-06-14T01:21:23;8.43;;;3.58;;
37677;SDS011;23517;50.390;8.616;2023-06-14T01:23:52;12.25;;;3.42;;
37677;SDS011;23517;50.390;8.616;2023-06-14T01:26:20;5.22;;;3.67;;
37677;SDS011;23517;50.390;8.616;2023-06-14T01:28:50;5.18;;;3.03;;
37677;SDS011;23517;50.390;8.616;2023-06-14T01:31:19;8.15;;;3.22;;
37677;SDS011;23517;50.390;8.616;2023-06-14T01:33:52;3.30;;;3.00;;
37677;SDS011;23517;50.390;8.616;2023-06-14T01:36:20;8.13;;;3.05;;
37677;SDS011;23517;50.390;8.616;2023-06-14T01:38:48;6.03;;;3.03;;
37677;SDS011;23517;50.390;8.616;2023-06-14T01:41:18;8.65;;;3.38;;
37677;SDS011;23517;50.390;8.616;2023-06-14T01:43:47;4.20;;;2.88;;
37677;SDS011;23517;50.390;8.616;2023-06-14T01:46:16;7.72;;;3.28;;
37677;SDS011;23517;50.390;8.616;2023-06-14T01:48:43;5.53;;;3.08;;
37677;SDS011;23517;50.390;8.616;2023-06-14T01:51:10;6.72;;;3.00;;
37677;SDS011;23517;50.390;8.616;2023-06-14T01:53:37;5.50;;;3.20;;
37677;SDS011;23517;50.390;8.616;2023-06-14T01:56:04;5.60;;;3.13;;
37677;SDS011;23517;50.390;8.616;2023-06-14T01:58:31;6.95;;;3.50;;
37677;SDS011;23517;50.390;8.616;2023-06-14T02:00:59;3.20;;;2.75;;
37677;SDS011;23517;50.390;8.616;2023-06-14T02:03:27;4.68;;;2.92;;
37677;SDS011;23517;50.390;8.616;2023-06-14T02:05:53;4.55;;;3.05;;
37677;SDS011;23517;50.390;8.616;2023-06-14T02:08:22;3.42;;;3.00;;
37677;SDS011;23517;50.390;8.616;2023-06-14T02:10:49;9.57;;;3.58;;
37677;SDS011;23517;50.390;8.616;2023-06-14T02:13:16;6.82;;;3.35;;
37677;SDS011;23517;50.390;8.616;2023-06-14T02:15:42;9.23;;;3.50;;
37677;SDS011;23517;50.390;8.616;2023-06-14T02:18:10;6.57;;;3.65;;
37677;SDS011;23517;50.390;8.616;2023-06-14T02:20:37;5.78;;;2.95;;
37677;SDS011;23517;50.390;8.616;2023-06-14T02:23:04;9.27;;;3.40;;
37677;SDS011;23517;50.390;8.616;2023-06-14T02:25:31;4.97;;;2.97;;
37677;SDS011;23517;50.390;8.616;2023-06-14T02:27:58;9.65;;;3.50;;
37677;SDS011;23517;50.390;8.616;2023-06-14T02:30:24;7.60;;;3.25;;
37677;SDS011;23517;50.390;8.616;2023-06-14T02:32:51;8.00;;;2.67;;
37677;SDS011;23517;50.390;8.616;2023-06-14T02:35:19;5.00;;;3.17;;
37677;SDS011;23517;50.390;8.616;2023-06-14T02:37:46;8.13;;;3.58;;
37677;SDS011;23517;50.390;8.616;2023-06-14T02:40:13;7.70;;;3.10;;
37677;SDS011;23517;50.390;8.616;2023-06-14T02:42:40;6.07;;;3.00;;
37677;SDS011;23517;50.390;8.616;2023-06-14T02:45:07;6.68;;;2.90;;
37677;SDS011;23517;50.390;8.616;2023-06-14T02:47:35;6.68;;;3.15;;
37677;SDS011;23517;50.390;8.616;2023-06-14T02:50:02;8.07;;;3.30;;
37677;SDS011;23517;50.390;8.616;2023-06-14T02:52:29;5.32;;;3.05;;
37677;SDS011;23517;50.390;8.616;2023-06-14T02:54:55;7.15;;;3.45;;
37677;SDS011;23517;50.390;8.616;2023-06-14T02:57:22;7.05;;;3.45;;
37677;SDS011;23517;50.390;8.616;2023-06-14T02:59:49;5.85;;;3.60;;
37677;SDS011;23517;50.390;8.616;2023-06-14T03:02:16;5.25;;;2.75;;
37677;SDS011;23517;50.390;8.616;2023-06-14T03:04:43;6.63;;;3.47;;
37677;SDS011;23517;50.390;8.616;2023-06-14T03:07:10;6.25;;;3.40;;
37677;SDS011;23517;50.390;8.616;2023-06-14T03:09:38;7.85;;;3.38;;
37677;SDS011;23517;50.390;8.616;2023-06-14T03:12:06;4.25;;;3.38;;
37677;SDS011;23517;50.390;8.616;2023-06-14T03:14:34;8.63;;;3.55;;
37677;SDS011;23517;50.390;8.616;2023-06-14T03:17:01;7.05;;;2.65;;
37677;SDS011;23517;50.390;8.616;2023-06-14T03:19:31;6.63;;;3.20;;
37677;SDS011;23517;50.390;8.616;2023-06-14T03:21:57;7.70;;;2.72;;
37677;SDS011;23517;50.390;8.616;2023-06-14T03:24:24;4.72;;;2.92;;
37677;SDS011;23517;50.390;8.616;2023-06-14T03:26:53;12.20;;;3.33;;
37677;SDS011;23517;50.390;8.616;2023-06-14T03:29:21;5.53;;;3.03;;
37677;SDS011;23517;50.390;8.616;2023-06-14T03:31:58;8.18;;;2.78;;
37677;SDS011;23517;50.390;8.616;2023-06-14T03:34:29;5.90;;;3.20;;
37677;SDS011;23517;50.390;8.616;2023-06-14T03:36:56;6.53;;;2.80;;
37677;SDS011;23517;50.390;8.616;2023-06-14T03:39:23;6.70;;;3.15;;
37677;SDS011;23517;50.390;8.616;2023-06-14T03:41:50;9.63;;;2.80;;
37677;SDS011;23517;50.390;8.616;2023-06-14T03:44:17;8.32;;;3.28;;
37677;SDS011;23517;50.390;8.616;2023-06-14T03:46:45;5.45;;;2.75;;
37677;SDS011;23517;50.390;8.616;2023-06-14T03:49:12;11.43;;;3.08;;
37677;SDS011;23517;50.390;8.616;2023-06-14T03:51:40;6.22;;;3.15;;
37677;SDS011;23517;50.390;8.616;2023-06-14T03:54:07;6.93;;;3.05;;
37677;SDS011;23517;50.390;8.616;2023-06-14T03:56:37;5.28;;;2.90;;
37677;SDS011;23517;50.390;8.616;2023-06-14T03:59:03;6.90;;;2.80;;
37677;SDS011;23517;50.390;8.616;2023-06-14T04:01:30;5.53;;;3.10;;
37677;SDS011;23517;50.390;8.616;2023-06-14T04:04:00;5.70;;;2.80;;
37677;SDS011;23517;50.390;8.616;2023-06-14T04:06:27;4.88;;;3.10;;
37677;SDS011;23517;50.390;8.616;2023-06-14T04:08:58;9.13;;;3.00;;
37677;SDS011;23517;50.390;8.616;2023-06-14T04:11:30;8.73;;;3.00;;
37677;SDS011;23517;50.390;8.616;2023-06-14T04:13:58;4.20;;;2.92;;
37677;SDS011;23517;50.390;8.616;2023-06-14T04:16:24;8.52;;;2.53;;
37677;SDS011;23517;50.390;8.616;2023-06-14T04:18:52;9.20;;;3.13;;
37677;SDS011;23517;50.390;8.616;2023-06-14T04:21:20;9.25;;;2.90;;
37677;SDS011;23517;50.390;8.616;2023-06-14T04:23:50;4.20;;;2.90;;
37677;SDS011;23517;50.390;8.616;2023-06-14T04:26:19;8.60;;;2.90;;
37677;SDS011;23517;50.390;8.616;2023-06-14T04:28:47;4.28;;;3.03;;
37677;SDS011;23517;50.390;8.616;2023-06-14T04:31:14;3.33;;;2.75;;
37677;SDS011;23517;50.390;8.616;2023-06-14T04:33:42;5.15;;;3.13;;
37677;SDS011;23517;50.390;8.616;2023-06-14T04:36:13;8.85;;;2.97;;
37677;SDS011;23517;50.390;8.616;2023-06-14T04:38:43;6.32;;;2.75;;
37677;SDS011;23517;50.390;8.616;2023-06-14T04:41:11;4.22;;;2.60;;
37677;SDS011;23517;50.390;8.616;2023-06-14T04:43:38;7.60;;;2.92;;
37677;SDS011;23517;50.390;8.616;2023-06-14T04:46:05;5.00;;;3.10;;
37677;SDS011;23517;50.390;8.616;2023-06-14T04:48:37;8.73;;;2.88;;
37677;SDS011;23517;50.390;8.616;2023-06-14T04:51:07;5.38;;;2.90;;
37677;SDS011;23517;50.390;8.616;2023-06-14T04:53:35;4.78;;;2.60;;
37677;SDS011;23517;50.390;8.616;2023-06-14T04:56:01;7.63;;;2.53;;
37677;SDS011;23517;50.390;8.616;2023-06-14T04:58:30;4.70;;;2.30;;
37677;SDS011;23517;50.390;8.616;2023-06-14T05:00:56;6.95;;;2.95;;
37677;SDS011;23517;50.390;8.616;2023-06-14T05:03:25;7.47;;;2.25;;
37677;SDS011;23517;50.390;8.616;2023-06-14T05:05:53;5.35;;;2.42;;
37677;SDS011;23517;50.390;8.616;2023-06-14T05:08:22;9.77;;;2.45;;
37677;SDS011;23517;50.390;8.616;2023-06-14T05:10:50;5.90;;;2.55;;
37677;SDS011;23517;50.390;8.616;2023-06-14T05:13:17;5.63;;;2.63;;
37677;SDS011;23517;50.390;8.616;2023-06-14T05:15:44;9.27;;;2.88;;
37677;SDS011;23517;50.390;8.616;2023-06-14T05:18:15;8.18;;;2.80;;
37677;SDS011;23517;50.390;8.616;2023-06-14T05:20:41;3.33;;;2.40;;
37677;SDS011;23517;50.390;8.616;2023-06-14T05:23:08;4.22;;;2.60;;
37677;SDS011;23517;50.390;8.616;2023-06-14T05:25:42;5.40;;;2.83;;
37677;SDS011;23517;50.390;8.616;2023-06-14T05:28:09;7.75;;;3.03;;
37677;SDS011;23517;50.390;8.616;2023-06-14T05:30:40;9.80;;;2.85;;
37677;SDS011;23517;50.390;8.616;2023-06-14T05:33:07;4.95;;;2.30;;
37677;SDS011;23517;50.390;8.616;2023-06-14T05:35:34;7.35;;;2.90;;
37677;SDS011;23517;50.390;8.616;2023-06-14T05:38:01;9.05;;;2.83;;
37677;SDS011;23517;50.390;8.616;2023-06-14T05:40:27;5.68;;;2.50;;
37677;SDS011;23517;50.390;8.616;2023-06-14T05:42:54;5.82;;;2.78;;
37677;SDS011;23517;50.390;8.616;2023-06-14T05:45:22;6.28;;;2.33;;
37677;SDS011;23517;50.390;8.616;2023-06-14T05:47:48;5.50;;;2.33;;
37677;SDS011;23517;50.390;8.616;2023-06-14T05:50:16;6.00;;;2.15;;
37677;SDS011;23517;50.390;8.616;2023-06-14T05:52:43;7.35;;;2.00;;
37677;SDS011;23517;50.390;8.616;2023-06-14T05:55:09;4.57;;;2.10;;
37677;SDS011;23517;50.390;8.616;2023-06-14T05:57:38;5.22;;;2.30;;
37677;SDS011;23517;50.390;8.616;2023-06-14T06:00:07;7.13;;;2.45;;
37677;SDS011;23517;50.390;8.616;2023-06-14T06:02:40;7.82;;;2.33;;
37677;SDS011;23517;50.390;8.616;2023-06-14T06:05:12;6.45;;;2.10;;
37677;SDS011;23517;50.390;8.616;2023-06-14T06:07:40;7.60;;;1.98;;
37677;SDS011;23517;50.390;8.616;2023-06-14T06:10:07;6.55;;;2.15;;
37677;SDS011;23517;50.390;8.616;2023-06-14T06:12:34;4.35;;;2.22;;
37677;SDS011;23517;50.390;8.616;2023-06-14T06:15:01;2.08;;;1.85;;
37677;SDS011;23517;50.390;8.616;2023-06-14T06:17:29;7.35;;;2.20;;
37677;SDS011;23517;50.390;8.616;2023-06-14T06:20:11;6.10;;;1.77;;
37677;SDS011;23517;50.390;8.616;2023-06-14T06:22:38;8.20;;;2.22;;
37677;SDS011;23517;50.390;8.616;2023-06-14T06:25:09;7.88;;;2.38;;
37677;SDS011;23517;50.390;8.616;2023-06-14T06:27:36;10.57;;;2.60;;
37677;SDS011;23517;50.390;8.616;2023-06-14T06:30:03;5.82;;;2.20;;
37677;SDS011;23517;50.390;8.616;2023-06-14T06:32:31;5.22;;;2.20;;
37677;SDS011;23517;50.390;8.616;2023-06-14T06:34:58;4.57;;;1.90;;
37677;SDS011;23517;50.390;8.616;2023-06-14T06:37:26;4.93;;;1.88;;
37677;SDS011;23517;50.390;8.616;2023-06-14T06:39:52;4.13;;;1.90;;
37677;SDS011;23517;50.390;8.616;2023-06-14T06:42:19;4.03;;;1.75;;
37677;SDS011;23517;50.390;8.616;2023-06-14T06:44:47;4.72;;;2.25;;
37677;SDS011;23517;50.390;8.616;2023-06-14T06:47:13;7.28;;;2.00;;
37677;SDS011;23517;50.390;8.616;2023-06-14T06:49:40;3.80;;;1.90;;
37677;SDS011;23517;50.390;8.616;2023-06-14T06:52:07;5.47;;;2.00;;
37677;SDS011;23517;50.390;8.616;2023-06-14T06:54:34;3.17;;;1.70;;
37677;SDS011;23517;50.390;8.616;2023-06-14T06:57:01;3.30;;;1.65;;
37677;SDS011;23517;50.390;8.616;2023-06-14T06:59:28;6.50;;;1.65;;
37677;SDS011;23517;50.390;8.616;2023-06-14T07:01:54;8.00;;;1.35;;
37677;SDS011;23517;50.390;8.616;2023-06-14T07:04:21;2.45;;;1.60;;
37677;SDS011;23517;50.390;8.616;2023-06-14T07:06:48;4.82;;;1.40;;
37677;SDS011;23517;50.390;8.616;2023-06-14T07:09:15;7.68;;;1.38;;
37677;SDS011;23517;50.390;8.616;2023-06-14T07:11:43;3.53;;;1.60;;
37677;SDS011;23517;50.390;8.616;2023-06-14T07:14:10;5.80;;;1.48;;
37677;SDS011;23517;50.390;8.616;2023-06-14T07:16:37;7.65;;;1.55;;
37677;SDS011;23517;50.390;8.616;2023-06-14T07:19:05;2.88;;;1.30;;
37677;SDS011;23517;50.390;8.616;2023-06-14T07:21:32;4.80;;;1.42;;
37677;SDS011;23517;50.390;8.616;2023-06-14T07:24:01;2.08;;;1.30;;
37677;SDS011;23517;50.390;8.616;2023-06-14T07:26:29;5.10;;;1.70;;
37677;SDS011;23517;50.390;8.616;2023-06-14T07:28:55;9.13;;;1.63;;
37677;SDS011;23517;50.390;8.616;2023-06-14T07:31:22;2.80;;;1.38;;
37677;SDS011;23517;50.390;8.616;2023-06-14T07:33:49;5.30;;;1.50;;
37677;SDS011;23517;50.390;8.616;2023-06-14T07:36:16;4.03;;;1.30;;
37677;SDS011;23517;50.390;8.616;2023-06-14T07:38:43;7.15;;;1.42;;
37677;SDS011;23517;50.390;8.616;2023-06-14T07:41:11;8.45;;;1.70;;
37677;SDS011;23517;50.390;8.616;2023-06-14T07:43:37;4.95;;;1.48;;
37677;SDS011;23517;50.390;8.616;2023-06-14T07:46:04;4.18;;;1.30;;
37677;SDS011;23517;50.390;8.616;2023-06-14T07:48:33;3.17;;;1.20;;
37677;SDS011;23517;50.390;8.616;2023-06-14T07:51:01;2.22;;;1.10;;
37677;SDS011;23517;50.390;8.616;2023-06-14T07:53:28;4.32;;;1.00;;
37677;SDS011;23517;50.390;8.616;2023-06-14T07:55:56;2.35;;;1.23;;
37677;SDS011;23517;50.390;8.616;2023-06-14T07:58:23;4.70;;;1.45;;
37677;SDS011;23517;50.390;8.616;2023-06-14T08:00:50;2.42;;;1.00;;
37677;SDS011;23517;50.390;8.616;2023-06-14T08:03:17;2.53;;;1.08;;
37677;SDS011;23517;50.390;8.616;2023-06-14T08:05:44;4.13;;;1.40;;
37677;SDS011;23517;50.390;8.616;2023-06-14T08:08:11;5.22;;;1.60;;
37677;SDS011;23517;50.390;8.616;2023-06-14T08:10:38;4.55;;;1.25;;
37677;SDS011;23517;50.390;8.616;2023-06-14T08:13:05;2.13;;;1.30;;
37677;SDS011;23517;50.390;8.616;2023-06-14T08:15:32;3.70;;;1.00;;
37677;SDS011;23517;50.390;8.616;2023-06-14T08:18:00;4.03;;;1.38;;
37677;SDS011;23517;50.390;8.616;2023-06-14T08:20:27;3.20;;;1.10;;
37677;SDS011;23517;50.390;8.616;2023-06-14T08:22:56;1.30;;;1.20;;
37677;SDS011;23517;50.390;8.616;2023-06-14T08:25:23;1.77;;;0.90;;
37677;SDS011;23517;50.390;8.616;2023-06-14T08:27:50;4.15;;;1.27;;
37677;SDS011;23517;50.390;8.616;2023-06-14T08:30:17;2.58;;;1.20;;
37677;SDS011;23517;50.390;8.616;2023-06-14T08:32:44;6.05;;;1.20;;
37677;SDS011;23517;50.390;8.616;2023-06-14T08:35:13;2.63;;;1.20;;
37677;SDS011;23517;50.390;8.616;2023-06-14T08:37:40;3.92;;;1.45;;
37677;SDS011;23517;50.390;8.616;2023-06-14T08:42:47;3.90;;;1.00;;
37677;SDS011;23517;50.390;8.616;2023-06-14T08:45:17;1.88;;;1.20;;
37677;SDS011;23517;50.390;8.616;2023-06-14T08:47:48;3.47;;;1.23;;
37677;SDS011;23517;50.390;8.616;2023-06-14T08:50:25;1.05;;;0.80;;
37677;SDS011;23517;50.390;8.616;2023-06-14T08:53:00;3.03;;;1.23;;
37677;SDS011;23517;50.390;8.616;2023-06-14T08:55:30;4.30;;;1.20;;
37677;SDS011;23517;50.390;8.616;2023-06-14T08:58:02;1.30;;;1.10;;
37677;SDS011;23517;50.390;8.616;2023-06-14T09:00:30;4.43;;;1.08;;
37677;SDS011;23517;50.390;8.616;2023-06-14T09:02:59;2.40;;;1.38;;
37677;SDS011;23517;50.390;8.616;2023-06-14T09:05:26;5.82;;;1.40;;
37677;SDS011;23517;50.390;8.616;2023-06-14T09:07:54;4.30;;;1.50;;
37677;SDS011;23517;50.390;8.616;2023-06-14T09:10:22;6.18;;;1.52;;
37677;SDS011;23517;50.390;8.616;2023-06-14T09:12:50;3.15;;;1.30;;
37677;SDS011;23517;50.390;8.616;2023-06-14T09:15:17;4.72;;;1.23;;
37677;SDS011;23517;50.390;8.616;2023-06-14T09:17:44;3.67;;;1.38;;
37677;SDS011;23517;50.390;8.616;2023-06-14T09:20:11;2.85;;;1.40;;
37677;SDS011;23517;50.390;8.616;2023-06-14T09:22:45;4.53;;;1.23;;
37677;SDS011;23517;50.390;8.616;2023-06-14T09:25:12;1.73;;;1.10;;
37677;SDS011;23517;50.390;8.616;2023-06-14T09:27:58;1.38;;;0.90;;
37677;SDS011;23517;50.390;8.616;2023-06-14T09:30:25;3.28;;;1.40;;
37677;SDS011;23517;50.390;8.616;2023-06-14T09:32:52;3.95;;;1.70;;
37677;SDS011;23517;50.390;8.616;2023-06-14T09:35:20;2.80;;;1.30;;
37677;SDS011;23517;50.390;8.616;2023-06-14T09:37:47;2.70;;;1.38;;
37677;SDS011;23517;50.390;8.616;2023-06-14T09:40:14;5.75;;;1.52;;
37677;SDS011;23517;50.390;8.616;2023-06-14T09:42:47;3.42;;;1.40;;
37677;SDS011;23517;50.390;8.616;2023-06-14T09:45:14;2.55;;;1.25;;
37677;SDS011;23517;50.390;8.616;2023-06-14T09:47:48;2.83;;;1.35;;
37677;SDS011;23517;50.390;8.616;2023-06-14T09:50:32;4.28;;;1.42;;
37677;SDS011;23517;50.390;8.616;2023-06-14T09:53:02;4.55;;;1.20;;
37677;SDS011;23517;50.390;8.616;2023-06-14T09:55:34;3.53;;;1.70;;
37677;SDS011;23517;50.390;8.616;2023-06-14T09:58:04;5.97;;;1.45;;
37677;SDS011;23517;50.390;8.616;2023-06-14T10:00:34;4.93;;;1.13;;
37677;SDS011;23517;50.390;8.616;2023-06-14T10:03:11;3.97;;;1.40;;
37677;SDS011;23517;50.390;8.616;2023-06-14T10:05:42;2.00;;;1.40;;
37677;SDS011;23517;50.390;8.616;2023-06-14T10:08:15;7.28;;;1.60;;
37677;SDS011;23517;50.390;8.616;2023-06-14T10:10:44;4.55;;;1.60;;
37677;SDS011;23517;50.390;8.616;2023-06-14T10:13:12;4.30;;;1.95;;
37677;SDS011;23517;50.390;8.616;2023-06-14T10:18:48;1.92;;;1.50;;
37677;SDS011;23517;50.390;8.616;2023-06-14T10:24:01;6.35;;;1.80;;
37677;SDS011;23517;50.390;8.616;2023-06-14T10:26:33;3.97;;;1.55;;
37677;SDS011;23517;50.390;8.616;2023-06-14T10:29:01;7.75;;;1.67;;
37677;SDS011;23517;50.390;8.616;2023-06-14T10:31:44;5.10;;;1.70;;
37677;SDS011;23517;50.390;8.616;2023-06-14T10:34:26;2.63;;;1.50;;
37677;SDS011;23517;50.390;8.616;2023-06-14T10:39:29;2.72;;;1.42;;
37677;SDS011;23517;50.390;8.616;2023-06-14T10:41:56;4.97;;;1.65;;
37677;SDS011;23517;50.390;8.616;2023-06-14T10:46:54;2.40;;;1.40;;
37677;SDS011;23517;50.390;8.616;2023-06-14T10:49:36;4.47;;;1.60;;
37677;SDS011;23517;50.390;8.616;2023-06-14T10:52:09;5.10;;;1.88;;
37677;SDS011;23517;50.390;8.616;2023-06-14T10:55:04;1.80;;;1.40;;
37677;SDS011;23517;50.390;8.616;2023-06-14T10:57:54;7.78;;;1.30;;
37677;SDS011;23517;50.390;8.616;2023-06-14T11:00:25;2.00;;;1.33;;
37677;SDS011;23517;50.390;8.616;2023-06-14T11:03:11;4.15;;;1.60;;
37677;SDS011;23517;50.390;8.616;2023-06-14T11:05:57;3.83;;;1.50;;
37677;SDS011;23517;50.390;8.616;2023-06-14T11:11:34;7.78;;;1.58;;
37677;SDS011;23517;50.390;8.616;2023-06-14T11:14:02;4.10;;;1.55;;
37677;SDS011;23517;50.390;8.616;2023-06-14T11:16:30;2.00;;;1.30;;
37677;SDS011;23517;50.390;8.616;2023-06-14T11:19:02;1.60;;;1.50;;
37677;SDS011;23517;50.390;8.616;2023-06-14T11:21:29;2.85;;;1.60;;
37677;SDS011;23517;50.390;8.616;2023-06-14T11:23:59;6.57;;;1.58;;
37677;SDS011;23517;50.390;8.616;2023-06-14T11:26:29;3.85;;;1.50;;
37677;SDS011;23517;50.390;8.616;2023-06-14T11:28:58;4.80;;;1.58;;
37677;SDS011;23517;50.390;8.616;2023-06-14T11:31:26;2.47;;;1.50;;
37677;SDS011;23517;50.390;8.616;2023-06-14T11:33:55;4.45;;;1.35;;
37677;SDS011;23517;50.390;8.616;2023-06-14T11:36:26;3.25;;;1.30;;
37677;SDS011;23517;50.390;8.616;2023-06-14T11:38:58;2.97;;;1.50;;
37677;SDS011;23517;50.390;8.616;2023-06-14T11:41:34;1.83;;;1.58;;
37677;SDS011;23517;50.390;8.616;2023-06-14T11:44:07;2.70;;;1.40;;
37677;SDS011;23517;50.390;8.616;2023-06-14T11:46:34;3.97;;;1.73;;
37677;SDS011;23517;50.390;8.616;2023-06-14T11:49:02;5.03;;;1.42;;
37677;SDS011;23517;50.390;8.616;2023-06-14T11:51:31;3.47;;;1.67;;
37677;SDS011;23517;50.390;8.616;2023-06-14T11:54:02;2.42;;;1.50;;
37677;SDS011;23517;50.390;8.616;2023-06-14T11:56:31;2.90;;;1.50;;
37677;SDS011;23517;50.390;8.616;2023-06-14T11:58:58;2.20;;;1.40;;
37677;SDS011;23517;50.390;8.616;2023-06-14T12:01:26;3.90;;;1.80;;
37677;SDS011;23517;50.390;8.616;2023-06-14T12:03:53;4.63;;;2.13;;
37677;SDS011;23517;50.390;8.616;2023-06-14T12:06:27;3.97;;;1.65;;
37677;SDS011;23517;50.390;8.616;2023-06-14T12:08:58;3.95;;;1.70;;
37677;SDS011;23517;50.390;8.616;2023-06-14T12:11:34;3.42;;;1.80;;
37677;SDS011;23517;50.390;8.616;2023-06-14T12:14:03;3.92;;;2.50;;
37677;SDS011;23517;50.390;8.616;2023-06-14T12:16:36;3.85;;;1.83;;
37677;SDS011;23517;50.390;8.616;2023-06-14T12:19:15;4.18;;;2.95;;
37677;SDS011;23517;50.390;8.616;2023-06-14T12:21:46;3.20;;;1.60;;
37677;SDS011;23517;50.390;8.616;2023-06-14T12:24:17;2.20;;;1.95;;
37677;SDS011;23517;50.390;8.616;2023-06-14T12:26:44;3.78;;;1.73;;
37677;SDS011;23517;50.390;8.616;2023-06-14T12:29:12;2.97;;;1.65;;
37677;SDS011;23517;50.390;8.616;2023-06-14T12:31:39;5.78;;;1.65;;
37677;SDS011;23517;50.390;8.616;2023-06-14T12:34:07;5.38;;;1.58;;
37677;SDS011;23517;50.390;8.616;2023-06-14T12:36:33;2.05;;;1.55;;
37677;SDS011;23517;50.390;8.616;2023-06-14T12:39:06;4.57;;;1.63;;
37677;SDS011;23517;50.390;8.616;2023-06-14T12:41:34;4.82;;;1.73;;
37677;SDS011;23517;50.390;8.616;2023-06-14T12:44:01;3.83;;;1.60;;
37677;SDS011;23517;50.390;8.616;2023-06-14T12:46:30;5.35;;;1.75;;
37677;SDS011;23517;50.390;8.616;2023-06-14T12:48:58;4.07;;;1.50;;
37677;SDS011;23517;50.390;8.616;2023-06-14T12:51:24;5.28;;;1.50;;
37677;SDS011;23517;50.390;8.616;2023-06-14T12:53:51;3.83;;;1.42;;
37677;SDS011;23517;50.390;8.616;2023-06-14T12:56:18;2.58;;;1.67;;
37677;SDS011;23517;50.390;8.616;2023-06-14T12:58:47;3.75;;;1.73;;
37677;SDS011;23517;50.390;8.616;2023-06-14T13:01:19;2.20;;;1.55;;
37677;SDS011;23517;50.390;8.616;2023-06-14T13:03:46;4.22;;;1.73;;
37677;SDS011;23517;50.390;8.616;2023-06-14T13:06:14;4.40;;;1.50;;
37677;SDS011;23517;50.390;8.616;2023-06-14T13:08:41;4.95;;;1.75;;
37677;SDS011;23517;50.390;8.616;2023-06-14T13:11:07;5.10;;;2.20;;
37677;SDS011;23517;50.390;8.616;2023-06-14T13:13:34;3.63;;;1.77;;
37677;SDS011;23517;50.390;8.616;2023-06-14T13:16:01;2.22;;;1.48;;
37677;SDS011;23517;50.390;8.616;2023-06-14T13:18:28;5.05;;;1.40;;
37677;SDS011;23517;50.390;8.616;2023-06-14T13:20:55;4.18;;;1.38;;
37677;SDS011;23517;50.390;8.616;2023-06-14T13:23:22;4.75;;;1.70;;
37677;SDS011;23517;50.390;8.616;2023-06-14T13:25:48;3.65;;;1.77;;
37677;SDS011;23517;50.390;8.616;2023-06-14T13:28:17;3.17;;;1.60;;
37677;SDS011;23517;50.390;8.616;2023-06-14T13:30:43;4.75;;;1.95;;
37677;SDS011;23517;50.390;8.616;2023-06-14T13:33:11;4.13;;;1.50;;
37677;SDS011;23517;50.390;8.616;2023-06-14T13:35:39;3.17;;;1.40;;
37677;SDS011;23517;50.390;8.616;2023-06-14T13:38:06;2.75;;;1.60;;
37677;SDS011;23517;50.390;8.616;2023-06-14T13:40:33;5.28;;;1.58;;
37677;SDS011;23517;50.390;8.616;2023-06-14T13:42:59;1.75;;;1.60;;
37677;SDS011;23517;50.390;8.616;2023-06-14T13:45:26;2.78;;;1.70;;
37677;SDS011;23517;50.390;8.616;2023-06-14T13:47:53;4.50;;;1.80;;
37677;SDS011;23517;50.390;8.616;2023-06-14T13:50:20;4.38;;;1.50;;
37677;SDS011;23517;50.390;8.616;2023-06-14T13:52:47;1.90;;;1.70;;
37677;SDS011;23517;50.390;8.616;2023-06-14T13:55:14;1.92;;;1.48;;
37677;SDS011;23517;50.390;8.616;2023-06-14T13:57:42;1.83;;;1.55;;
37677;SDS011;23517;50.390;8.616;2023-06-14T14:00:09;3.67;;;1.50;;
37677;SDS011;23517;50.390;8.616;2023-06-14T14:02:37;3.92;;;1.75;;
37677;SDS011;23517;50.390;8.616;2023-06-14T14:05:04;4.45;;;1.63;;
37677;SDS011;23517;50.390;8.616;2023-06-14T14:07:31;7.82;;;1.65;;
37677;SDS011;23517;50.390;8.616;2023-06-14T14:09:58;1.92;;;1.40;;
37677;SDS011;23517;50.390;8.616;2023-06-14T14:12:24;2.25;;;1.33;;
37677;SDS011;23517;50.390;8.616;2023-06-14T14:14:51;4.45;;;1.20;;
37677;SDS011;23517;50.390;8.616;2023-06-14T14:17:18;3.70;;;1.40;;
37677;SDS011;23517;50.390;8.616;2023-06-14T14:19:45;5.38;;;1.60;;
37677;SDS011;23517;50.390;8.616;2023-06-14T14:22:12;2.33;;;1.33;;
37677;SDS011;23517;50.390;8.616;2023-06-14T14:24:38;4.20;;;2.22;;
37677;SDS011;23517;50.390;8.616;2023-06-14T14:27:05;4.05;;;1.80;;
37677;SDS011;23517;50.390;8.616;2023-06-14T14:29:32;6.05;;;1.90;;
37677;SDS011;23517;50.390;8.616;2023-06-14T14:31:59;3.33;;;1.48;;
37677;SDS011;23517;50.390;8.616;2023-06-14T14:34:26;4.97;;;1.60;;
37677;SDS011;23517;50.390;8.616;2023-06-14T14:36:53;2.10;;;1.70;;
37677;SDS011;23517;50.390;8.616;2023-06-14T14:39:20;3.10;;;1.40;;
37677;SDS011;23517;50.390;8.616;2023-06-14T14:41:47;2.38;;;1.60;;
37677;SDS011;23517;50.390;8.616;2023-06-14T14:44:24;1.70;;;1.45;;
37677;SDS011;23517;50.390;8.616;2023-06-14T14:46:51;2.00;;;1.60;;
37677;SDS011;23517;50.390;8.616;2023-06-14T14:49:17;4.93;;;1.58;;
37677;SDS011;23517;50.390;8.616;2023-06-14T14:51:44;3.90;;;1.40;;
37677;SDS011;23517;50.390;8.616;2023-06-14T14:54:13;3.28;;;1.73;;
37677;SDS011;23517;50.390;8.616;2023-06-14T14:56:40;3.25;;;1.38;;
37677;SDS011;23517;50.390;8.616;2023-06-14T14:59:07;7.22;;;1.30;;
37677;SDS011;23517;50.390;8.616;2023-06-14T15:01:34;3.47;;;1.52;;
37677;SDS011;23517;50.390;8.616;2023-06-14T15:04:01;4.57;;;1.90;;
37677;SDS011;23517;50.390;8.616;2023-06-14T15:06:27;9.18;;;1.42;;
37677;SDS011;23517;50.390;8.616;2023-06-14T15:08:54;3.38;;;1.77;;
37677;SDS011;23517;50.390;8.616;2023-06-14T15:11:22;1.30;;;1.20;;
37677;SDS011;23517;50.390;8.616;2023-06-14T15:13:48;5.90;;;1.70;;
37677;SDS011;23517;50.390;8.616;2023-06-14T15:16:16;3.63;;;1.50;;